sensor_id;sensor_type;location;lat;lon;timestamp;temperature;humidity
29255;DHT22;16277;48.890;2.306;2023-12-04T00:04:53;9.70;85.40
29255;DHT22;16277;48.890;2.306;2023-12-04T00:19:58;9.90;85.10
29255;DHT22;16277;48.890;2.306;2023-12-04T00:35:02;9.90;85.80
29255;DHT22;16277;48.890;2.306;2023-12-04T00:50:08;10.00;86.10
29255;DHT22;16277;48.890;2.306;2023-12-04T01:05:13;9.80;87.30
29255;DHT22;16277;48.890;2.306;2023-12-04T01:20:18;9.80;87.90
29255;DHT22;16277;48.890;2.306;2023-12-04T01:35:22;10.10;88.70
29255;DHT22;16277;48.890;2.306;2023-12-04T01:50:27;10.10;88.10
29255;DHT22;16277;48.890;2.306;2023-12-04T02:05:32;10.30;88.10
29255;DHT22;16277;48.890;2.306;2023-12-04T02:20:37;9.90;89.10
29255;DHT22;16277;48.890;2.306;2023-12-04T02:35:42;10.10;89.50
29255;DHT22;16277;48.890;2.306;2023-12-04T02:50:47;10.00;90.10
29255;DHT22;16277;48.890;2.306;2023-12-04T03:05:51;9.90;90.30
29255;DHT22;16277;48.890;2.306;2023-12-04T03:20:56;10.20;90.40
29255;DHT22;16277;48.890;2.306;2023-12-04T03:36:00;10.30;90.50
29255;DHT22;16277;48.890;2.306;2023-12-04T03:51:06;10.30;90.80
29255;DHT22;16277;48.890;2.306;2023-12-04T04:06:11;10.40;91.50
29255;DHT22;16277;48.890;2.306;2023-12-04T04:21:15;10.00;93.50
29255;DHT22;16277;48.890;2.306;2023-12-04T04:36:19;10.50;94.30
29255;DHT22;16277;48.890;2.306;2023-12-04T04:51:24;10.10;96.50
29255;DHT22;16277;48.890;2.306;2023-12-04T05:06:29;9.80;98.60
29255;DHT22;16277;48.890;2.306;2023-12-04T05:21:33;10.00;99.90
29255;DHT22;16277;48.890;2.306;2023-12-04T05:36:38;9.80;99.90
29255;DHT22;16277;48.890;2.306;2023-12-04T05:51:43;9.90;99.90
29255;DHT22;16277;48.890;2.306;2023-12-04T06:06:47;9.80;99.90
29255;DHT22;16277;48.890;2.306;2023-12-04T06:21:52;9.60;99.90
29255;DHT22;16277;48.890;2.306;2023-12-04T06:36:57;9.70;99.90
29255;DHT22;16277;48.890;2.306;2023-12-04T06:52:03;9.70;99.90
29255;DHT22;16277;48.890;2.306;2023-12-04T07:07:10;9.60;99.90
29255;DHT22;16277;48.890;2.306;2023-12-04T07:22:15;9.50;99.90
29255;DHT22;16277;48.890;2.306;2023-12-04T07:37:20;9.50;99.90
29255;DHT22;16277;48.890;2.306;2023-12-04T07:52:24;9.70;99.90
29255;DHT22;16277;48.890;2.306;2023-12-04T08:07:29;9.70;99.90
29255;DHT22;16277;48.890;2.306;2023-12-04T08:22:34;9.70;99.90
29255;DHT22;16277;48.890;2.306;2023-12-04T08:37:39;9.70;99.90
29255;DHT22;16277;48.890;2.306;2023-12-04T08:52:43;9.70;99.90
29255;DHT22;16277;48.890;2.306;2023-12-04T09:07:48;9.90;99.90
29255;DHT22;16277;48.890;2.306;2023-12-04T09:23:12;10.00;99.90
29255;DHT22;16277;48.890;2.306;2023-12-04T09:38:17;10.20;99.90
29255;DHT22;16277;48.890;2.306;2023-12-04T09:53:21;10.30;99.90
29255;DHT22;16277;48.890;2.306;2023-12-04T10:08:27;10.50;99.90
29255;DHT22;16277;48.890;2.306;2023-12-04T10:23:42;10.60;99.90
29255;DHT22;16277;48.890;2.306;2023-12-04T10:38:46;10.80;99.90
29255;DHT22;16277;48.890;2.306;2023-12-04T10:53:51;10.80;99.90
29255;DHT22;16277;48.890;2.306;2023-12-04T11:08:56;11.30;99.90
29255;DHT22;16277;48.890;2.306;2023-12-04T11:24:03;11.60;99.90
29255;DHT22;16277;48.890;2.306;2023-12-04T11:39:10;11.60;99.90
29255;DHT22;16277;48.890;2.306;2023-12-04T11:54:17;12.00;99.90
29255;DHT22;16277;48.890;2.306;2023-12-04T12:09:22;12.10;99.90
29255;DHT22;16277;48.890;2.306;2023-12-04T12:24:27;12.20;99.90
29255;DHT22;16277;48.890;2.306;2023-12-04T12:39:33;12.30;99.90
29255;DHT22;16277;48.890;2.306;2023-12-04T12:54:38;12.50;99.90
29255;DHT22;16277;48.890;2.306;2023-12-04T13:09:44;12.40;99.90
29255;DHT22;16277;48.890;2.306;2023-12-04T13:24:48;12.70;99.90
29255;DHT22;16277;48.890;2.306;2023-12-04T13:39:53;12.60;99.90
29255;DHT22;16277;48.890;2.306;2023-12-04T13:55:01;12.70;99.90
29255;DHT22;16277;48.890;2.306;2023-12-04T14:10:14;12.70;99.90
29255;DHT22;16277;48.890;2.306;2023-12-04T14:25:19;12.50;99.90
29255;DHT22;16277;48.890;2.306;2023-12-04T14:40:23;12.60;99.90
29255;DHT22;16277;48.890;2.306;2023-12-04T14:55:28;12.50;99.90
29255;DHT22;16277;48.890;2.306;2023-12-04T15:10:59;12.20;99.90
29255;DHT22;16277;48.890;2.306;2023-12-04T15:26:26;12.60;99.90
29255;DHT22;16277;48.890;2.306;2023-12-04T15:41:30;12.30;99.90
29255;DHT22;16277;48.890;2.306;2023-12-04T15:56:35;12.60;99.90
29255;DHT22;16277;48.890;2.306;2023-12-04T16:11:40;12.70;99.90
29255;DHT22;16277;48.890;2.306;2023-12-04T16:26:44;12.80;99.90
29255;DHT22;16277;48.890;2.306;2023-12-04T16:41:50;13.00;99.90
29255;DHT22;16277;48.890;2.306;2023-12-04T16:56:54;13.20;99.90
29255;DHT22;16277;48.890;2.306;2023-12-04T17:11:59;12.80;99.90
29255;DHT22;16277;48.890;2.306;2023-12-04T17:27:04;13.00;99.90
29255;DHT22;16277;48.890;2.306;2023-12-04T17:42:09;13.00;99.90
29255;DHT22;16277;48.890;2.306;2023-12-04T17:57:13;13.10;99.90
29255;DHT22;16277;48.890;2.306;2023-12-04T18:12:18;12.90;99.90
29255;DHT22;16277;48.890;2.306;2023-12-04T18:27:23;13.00;99.90
29255;DHT22;16277;48.890;2.306;2023-12-04T18:42:28;13.00;99.90
29255;DHT22;16277;48.890;2.306;2023-12-04T18:57:33;12.80;99.90
29255;DHT22;16277;48.890;2.306;2023-12-04T19:12:40;12.70;99.90
29255;DHT22;16277;48.890;2.306;2023-12-04T19:27:45;12.80;99.90
29255;DHT22;16277;48.890;2.306;2023-12-04T19:42:49;12.90;99.90
29255;DHT22;16277;48.890;2.306;2023-12-04T19:57:53;12.80;99.90
29255;DHT22;16277;48.890;2.306;2023-12-04T20:12:58;12.70;99.90
29255;DHT22;16277;48.890;2.306;2023-12-04T21:27:10;12.40;99.90
29255;DHT22;16277;48.890;2.306;2023-12-04T21:42:15;12.60;99.90
29255;DHT22;16277;48.890;2.306;2023-12-04T21:57:19;12.60;99.90
29255;DHT22;16277;48.890;2.306;2023-12-04T22:12:24;12.50;99.90
29255;DHT22;16277;48.890;2.306;2023-12-04T22:27:28;12.50;99.90
29255;DHT22;16277;48.890;2.306;2023-12-04T22:42:33;12.20;99.90
29255;DHT22;16277;48.890;2.306;2023-12-04T22:57:38;12.30;99.90
29255;DHT22;16277;48.890;2.306;2023-12-04T23:12:42;12.30;99.90
29255;DHT22;16277;48.890;2.306;2023-12-04T23:27:47;12.10;99.90
29255;DHT22;16277;48.890;2.306;2023-12-04T23:42:51;12.10;99.90
29255;DHT22;16277;48.890;2.306;2023-12-04T23:57:55;12.20;99.90
